sensor_id;sensor_type;location;lat;lon;timestamp;P1;durP1;ratioP1;P2;durP2;ratioP2
1026;SDS011;502;48.746;9.214;2023-11-21T00:00:31;4.30;;;2.80;;
1026;SDS011;502;48.746;9.214;2023-11-21T00:02:58;4.97;;;2.30;;
1026;SDS011;502;48.746;9.214;2023-11-21T00:05:24;4.20;;;2.13;;
1026;SDS011;502;48.746;9.214;2023-11-21T00:07:52;5.97;;;2.40;;
1026;SDS011;502;48.746;9.214;2023-11-21T00:10:19;3.73;;;2.10;;
1026;SDS011;502;48.746;9.214;2023-11-21T00:12:45;5.03;;;2.27;;
1026;SDS011;502;48.746;9.214;2023-11-21T00:15:13;2.23;;;1.77;;
1026;SDS011;502;48.746;9.214;2023-11-21T00:17:40;5.70;;;1.83;;
1026;SDS011;502;48.746;9.214;2023-11-21T00:20:08;4.20;;;2.60;;
1026;SDS011;502;48.746;9.214;2023-11-21T00:22:37;2.83;;;1.90;;
1026;SDS011;502;48.746;9.214;2023-11-21T00:25:07;2.63;;;1.87;;
1026;SDS011;502;48.746;9.214;2023-11-21T00:27:34;2.83;;;2.30;;
1026;SDS011;502;48.746;9.214;2023-11-21T00:30:01;3.17;;;1.90;;
1026;SDS011;502;48.746;9.214;2023-11-21T00:32:29;4.53;;;1.80;;
1026;SDS011;502;48.746;9.214;2023-11-21T00:34:57;2.93;;;2.07;;
1026;SDS011;502;48.746;9.214;2023-11-21T00:37:24;4.23;;;2.10;;
1026;SDS011;502;48.746;9.214;2023-11-21T00:39:51;5.73;;;2.63;;
1026;SDS011;502;48.746;9.214;2023-11-21T00:42:18;3.27;;;2.40;;
1026;SDS011;502;48.746;9.214;2023-11-21T00:44:46;4.50;;;2.30;;
1026;SDS011;502;48.746;9.214;2023-11-21T00:47:13;5.73;;;2.13;;
1026;SDS011;502;48.746;9.214;2023-11-21T00:49:39;2.57;;;2.17;;
1026;SDS011;502;48.746;9.214;2023-11-21T00:52:06;3.90;;;1.80;;
1026;SDS011;502;48.746;9.214;2023-11-21T00:54:33;3.43;;;2.23;;
1026;SDS011;502;48.746;9.214;2023-11-21T00:56:59;3.93;;;2.47;;
1026;SDS011;502;48.746;9.214;2023-11-21T00:59:27;3.13;;;2.43;;
1026;SDS011;502;48.746;9.214;2023-11-21T01:01:54;3.00;;;1.73;;
1026;SDS011;502;48.746;9.214;2023-11-21T01:04:20;2.20;;;1.90;;
1026;SDS011;502;48.746;9.214;2023-11-21T01:06:47;3.33;;;2.00;;
1026;SDS011;502;48.746;9.214;2023-11-21T01:09:13;3.37;;;2.13;;
1026;SDS011;502;48.746;9.214;2023-11-21T01:11:42;3.93;;;2.13;;
1026;SDS011;502;48.746;9.214;2023-11-21T01:14:08;2.53;;;1.57;;
1026;SDS011;502;48.746;9.214;2023-11-21T01:16:36;1.73;;;1.40;;
1026;SDS011;502;48.746;9.214;2023-11-21T01:19:03;3.90;;;1.40;;
1026;SDS011;502;48.746;9.214;2023-11-21T01:21:31;3.80;;;1.90;;
1026;SDS011;502;48.746;9.214;2023-11-21T01:23:57;3.00;;;1.80;;
1026;SDS011;502;48.746;9.214;2023-11-21T01:26:24;2.77;;;2.00;;
1026;SDS011;502;48.746;9.214;2023-11-21T01:28:50;2.67;;;2.40;;
1026;SDS011;502;48.746;9.214;2023-11-21T01:31:17;2.23;;;1.60;;
1026;SDS011;502;48.746;9.214;2023-11-21T01:33:46;4.83;;;1.80;;
1026;SDS011;502;48.746;9.214;2023-11-21T01:36:13;4.07;;;2.20;;
1026;SDS011;502;48.746;9.214;2023-11-21T01:38:40;3.40;;;1.47;;
1026;SDS011;502;48.746;9.214;2023-11-21T01:41:07;4.80;;;1.90;;
1026;SDS011;502;48.746;9.214;2023-11-21T01:43:36;4.83;;;2.27;;
1026;SDS011;502;48.746;9.214;2023-11-21T01:46:03;3.17;;;1.60;;
1026;SDS011;502;48.746;9.214;2023-11-21T01:48:31;4.13;;;1.90;;
1026;SDS011;502;48.746;9.214;2023-11-21T01:50:59;3.60;;;2.10;;
1026;SDS011;502;48.746;9.214;2023-11-21T01:53:26;1.97;;;1.40;;
1026;SDS011;502;48.746;9.214;2023-11-21T01:55:53;3.07;;;1.40;;
1026;SDS011;502;48.746;9.214;2023-11-21T01:58:19;4.03;;;1.77;;
1026;SDS011;502;48.746;9.214;2023-11-21T02:00:46;2.53;;;1.20;;
1026;SDS011;502;48.746;9.214;2023-11-21T02:03:15;2.80;;;2.00;;
1026;SDS011;502;48.746;9.214;2023-11-21T02:05:42;1.97;;;1.23;;
1026;SDS011;502;48.746;9.214;2023-11-21T02:08:10;1.83;;;1.30;;
1026;SDS011;502;48.746;9.214;2023-11-21T02:10:36;2.27;;;2.00;;
1026;SDS011;502;48.746;9.214;2023-11-21T02:13:03;3.83;;;1.50;;
1026;SDS011;502;48.746;9.214;2023-11-21T02:15:31;2.90;;;1.73;;
1026;SDS011;502;48.746;9.214;2023-11-21T02:17:57;3.10;;;1.77;;
1026;SDS011;502;48.746;9.214;2023-11-21T02:20:26;2.80;;;1.80;;
1026;SDS011;502;48.746;9.214;2023-11-21T02:22:55;2.20;;;1.20;;
1026;SDS011;502;48.746;9.214;2023-11-21T02:25:24;4.07;;;1.20;;
1026;SDS011;502;48.746;9.214;2023-11-21T02:27:53;3.00;;;1.50;;
1026;SDS011;502;48.746;9.214;2023-11-21T02:30:20;2.10;;;1.53;;
1026;SDS011;502;48.746;9.214;2023-11-21T02:32:47;3.93;;;1.20;;
1026;SDS011;502;48.746;9.214;2023-11-21T02:35:14;3.00;;;1.27;;
1026;SDS011;502;48.746;9.214;2023-11-21T02:37:41;2.30;;;1.27;;
1026;SDS011;502;48.746;9.214;2023-11-21T02:40:10;3.23;;;1.10;;
1026;SDS011;502;48.746;9.214;2023-11-21T02:42:38;2.67;;;1.10;;
1026;SDS011;502;48.746;9.214;2023-11-21T02:45:06;2.70;;;1.10;;
1026;SDS011;502;48.746;9.214;2023-11-21T02:47:33;2.70;;;1.50;;
1026;SDS011;502;48.746;9.214;2023-11-21T02:49:59;2.10;;;1.23;;
1026;SDS011;502;48.746;9.214;2023-11-21T02:52:26;2.60;;;1.00;;
1026;SDS011;502;48.746;9.214;2023-11-21T02:54:52;2.47;;;1.33;;
1026;SDS011;502;48.746;9.214;2023-11-21T02:57:20;3.60;;;1.40;;
1026;SDS011;502;48.746;9.214;2023-11-21T02:59:47;1.87;;;1.40;;
1026;SDS011;502;48.746;9.214;2023-11-21T03:02:14;2.00;;;1.23;;
1026;SDS011;502;48.746;9.214;2023-11-21T03:04:41;1.60;;;1.10;;
1026;SDS011;502;48.746;9.214;2023-11-21T03:07:08;1.97;;;1.20;;
1026;SDS011;502;48.746;9.214;2023-11-21T03:09:35;3.73;;;1.00;;
1026;SDS011;502;48.746;9.214;2023-11-21T03:12:03;3.47;;;1.37;;
1026;SDS011;502;48.746;9.214;2023-11-21T03:14:31;3.97;;;1.30;;
1026;SDS011;502;48.746;9.214;2023-11-21T03:16:58;1.83;;;1.00;;
1026;SDS011;502;48.746;9.214;2023-11-21T03:19:25;2.27;;;0.90;;
1026;SDS011;502;48.746;9.214;2023-11-21T03:21:52;1.93;;;0.90;;
1026;SDS011;502;48.746;9.214;2023-11-21T03:24:19;1.47;;;1.03;;
1026;SDS011;502;48.746;9.214;2023-11-21T03:26:47;2.50;;;1.00;;
1026;SDS011;502;48.746;9.214;2023-11-21T03:29:14;1.80;;;1.23;;
1026;SDS011;502;48.746;9.214;2023-11-21T03:31:42;1.93;;;1.00;;
1026;SDS011;502;48.746;9.214;2023-11-21T03:34:10;1.60;;;0.90;;
1026;SDS011;502;48.746;9.214;2023-11-21T03:36:40;2.03;;;1.43;;
1026;SDS011;502;48.746;9.214;2023-11-21T03:39:07;2.33;;;1.40;;
1026;SDS011;502;48.746;9.214;2023-11-21T03:41:34;3.37;;;1.07;;
1026;SDS011;502;48.746;9.214;2023-11-21T03:44:00;1.40;;;0.80;;
1026;SDS011;502;48.746;9.214;2023-11-21T03:46:27;2.17;;;1.37;;
1026;SDS011;502;48.746;9.214;2023-11-21T03:48:55;1.70;;;0.87;;
1026;SDS011;502;48.746;9.214;2023-11-21T03:51:21;1.40;;;0.93;;
1026;SDS011;502;48.746;9.214;2023-11-21T03:53:48;1.27;;;1.00;;
1026;SDS011;502;48.746;9.214;2023-11-21T03:56:14;1.43;;;0.90;;
1026;SDS011;502;48.746;9.214;2023-11-21T03:58:41;1.57;;;0.93;;
1026;SDS011;502;48.746;9.214;2023-11-21T04:01:07;1.23;;;1.00;;
1026;SDS011;502;48.746;9.214;2023-11-21T04:03:34;3.93;;;1.37;;
1026;SDS011;502;48.746;9.214;2023-11-21T04:06:02;1.87;;;1.13;;
1026;SDS011;502;48.746;9.214;2023-11-21T04:08:31;1.90;;;0.90;;
1026;SDS011;502;48.746;9.214;2023-11-21T04:10:59;1.33;;;1.03;;
1026;SDS011;502;48.746;9.214;2023-11-21T04:13:26;1.57;;;0.77;;
1026;SDS011;502;48.746;9.214;2023-11-21T04:15:53;1.33;;;0.90;;
1026;SDS011;502;48.746;9.214;2023-11-21T04:18:19;2.73;;;0.93;;
1026;SDS011;502;48.746;9.214;2023-11-21T04:20:46;1.20;;;0.70;;
1026;SDS011;502;48.746;9.214;2023-11-21T04:23:13;2.57;;;1.10;;
1026;SDS011;502;48.746;9.214;2023-11-21T04:25:40;1.70;;;1.00;;
1026;SDS011;502;48.746;9.214;2023-11-21T04:28:07;2.27;;;0.87;;
1026;SDS011;502;48.746;9.214;2023-11-21T04:30:33;1.70;;;0.93;;
1026;SDS011;502;48.746;9.214;2023-11-21T04:33:00;1.77;;;0.80;;
1026;SDS011;502;48.746;9.214;2023-11-21T04:35:28;1.37;;;0.80;;
1026;SDS011;502;48.746;9.214;2023-11-21T04:37:54;1.00;;;0.63;;
1026;SDS011;502;48.746;9.214;2023-11-21T04:40:23;1.13;;;0.63;;
1026;SDS011;502;48.746;9.214;2023-11-21T04:42:52;1.37;;;0.80;;
1026;SDS011;502;48.746;9.214;2023-11-21T04:45:18;1.20;;;0.90;;
1026;SDS011;502;48.746;9.214;2023-11-21T04:47:45;1.00;;;0.80;;
1026;SDS011;502;48.746;9.214;2023-11-21T04:50:11;1.10;;;0.70;;
1026;SDS011;502;48.746;9.214;2023-11-21T04:52:38;2.27;;;0.70;;
1026;SDS011;502;48.746;9.214;2023-11-21T04:55:05;1.50;;;0.70;;
1026;SDS011;502;48.746;9.214;2023-11-21T04:57:36;1.37;;;1.00;;
1026;SDS011;502;48.746;9.214;2023-11-21T05:00:03;1.90;;;1.00;;
1026;SDS011;502;48.746;9.214;2023-11-21T05:02:31;1.43;;;0.93;;
1026;SDS011;502;48.746;9.214;2023-11-21T05:04:59;4.40;;;1.40;;
1026;SDS011;502;48.746;9.214;2023-11-21T05:07:25;1.00;;;0.63;;
1026;SDS011;502;48.746;9.214;2023-11-21T05:09:53;1.67;;;0.97;;
1026;SDS011;502;48.746;9.214;2023-11-21T05:12:21;1.53;;;1.03;;
1026;SDS011;502;48.746;9.214;2023-11-21T05:14:49;1.43;;;1.10;;
1026;SDS011;502;48.746;9.214;2023-11-21T05:17:16;1.20;;;0.60;;
1026;SDS011;502;48.746;9.214;2023-11-21T05:19:43;2.53;;;1.00;;
1026;SDS011;502;48.746;9.214;2023-11-21T05:22:10;1.30;;;1.00;;
1026;SDS011;502;48.746;9.214;2023-11-21T05:24:37;1.33;;;0.80;;
1026;SDS011;502;48.746;9.214;2023-11-21T05:27:04;1.50;;;0.83;;
1026;SDS011;502;48.746;9.214;2023-11-21T05:29:31;3.20;;;0.93;;
1026;SDS011;502;48.746;9.214;2023-11-21T05:31:58;1.73;;;1.17;;
1026;SDS011;502;48.746;9.214;2023-11-21T05:34:25;1.50;;;0.80;;
1026;SDS011;502;48.746;9.214;2023-11-21T05:36:51;1.27;;;0.90;;
1026;SDS011;502;48.746;9.214;2023-11-21T05:39:18;1.30;;;0.93;;
1026;SDS011;502;48.746;9.214;2023-11-21T05:41:46;1.67;;;0.70;;
1026;SDS011;502;48.746;9.214;2023-11-21T05:44:12;3.83;;;0.90;;
1026;SDS011;502;48.746;9.214;2023-11-21T05:46:40;2.40;;;1.40;;
1026;SDS011;502;48.746;9.214;2023-11-21T05:49:09;1.67;;;1.17;;
1026;SDS011;502;48.746;9.214;2023-11-21T05:51:36;1.77;;;1.07;;
1026;SDS011;502;48.746;9.214;2023-11-21T05:54:03;1.20;;;0.70;;
1026;SDS011;502;48.746;9.214;2023-11-21T05:56:30;2.03;;;0.77;;
1026;SDS011;502;48.746;9.214;2023-11-21T05:58:56;1.40;;;0.90;;
1026;SDS011;502;48.746;9.214;2023-11-21T06:01:23;1.20;;;0.80;;
1026;SDS011;502;48.746;9.214;2023-11-21T06:03:50;1.40;;;0.70;;
1026;SDS011;502;48.746;9.214;2023-11-21T06:06:18;1.10;;;0.63;;
1026;SDS011;502;48.746;9.214;2023-11-21T06:08:44;1.97;;;1.00;;
1026;SDS011;502;48.746;9.214;2023-11-21T06:11:11;2.93;;;1.10;;
1026;SDS011;502;48.746;9.214;2023-11-21T06:13:37;1.93;;;1.07;;
1026;SDS011;502;48.746;9.214;2023-11-21T06:16:05;1.70;;;1.30;;
1026;SDS011;502;48.746;9.214;2023-11-21T06:18:41;2.17;;;1.10;;
1026;SDS011;502;48.746;9.214;2023-11-21T06:21:09;1.33;;;0.90;;
1026;SDS011;502;48.746;9.214;2023-11-21T06:23:37;2.37;;;1.10;;
1026;SDS011;502;48.746;9.214;2023-11-21T06:26:08;1.10;;;0.80;;
1026;SDS011;502;48.746;9.214;2023-11-21T06:28:35;1.60;;;1.00;;
1026;SDS011;502;48.746;9.214;2023-11-21T06:31:05;2.23;;;1.57;;
1026;SDS011;502;48.746;9.214;2023-11-21T06:33:32;3.40;;;1.87;;
1026;SDS011;502;48.746;9.214;2023-11-21T06:36:01;2.53;;;1.63;;
1026;SDS011;502;48.746;9.214;2023-11-21T06:38:28;1.80;;;1.53;;
1026;SDS011;502;48.746;9.214;2023-11-21T06:40:58;2.50;;;1.60;;
1026;SDS011;502;48.746;9.214;2023-11-21T06:47:50;1.60;;;1.33;;
1026;SDS011;502;48.746;9.214;2023-11-21T06:50:16;2.50;;;2.00;;
1026;SDS011;502;48.746;9.214;2023-11-21T06:52:43;3.10;;;2.03;;
1026;SDS011;502;48.746;9.214;2023-11-21T06:55:09;2.40;;;1.97;;
1026;SDS011;502;48.746;9.214;2023-11-21T06:57:37;2.80;;;2.10;;
1026;SDS011;502;48.746;9.214;2023-11-21T07:00:04;2.00;;;1.80;;
1026;SDS011;502;48.746;9.214;2023-11-21T07:02:34;1.60;;;1.43;;
1026;SDS011;502;48.746;9.214;2023-11-21T07:05:01;1.90;;;1.30;;
1026;SDS011;502;48.746;9.214;2023-11-21T07:07:27;2.37;;;1.83;;
1026;SDS011;502;48.746;9.214;2023-11-21T07:09:54;2.10;;;1.63;;
1026;SDS011;502;48.746;9.214;2023-11-21T07:12:20;2.10;;;1.90;;
1026;SDS011;502;48.746;9.214;2023-11-21T07:14:50;2.60;;;2.13;;
1026;SDS011;502;48.746;9.214;2023-11-21T07:17:16;2.23;;;1.70;;
1026;SDS011;502;48.746;9.214;2023-11-21T07:19:43;2.10;;;1.63;;
1026;SDS011;502;48.746;9.214;2023-11-21T07:22:10;5.17;;;2.40;;
1026;SDS011;502;48.746;9.214;2023-11-21T07:24:38;2.80;;;2.13;;
1026;SDS011;502;48.746;9.214;2023-11-21T07:27:04;4.00;;;2.27;;
1026;SDS011;502;48.746;9.214;2023-11-21T07:29:31;3.30;;;2.00;;
1026;SDS011;502;48.746;9.214;2023-11-21T07:31:59;1.80;;;1.60;;
1026;SDS011;502;48.746;9.214;2023-11-21T07:34:26;3.00;;;2.40;;
1026;SDS011;502;48.746;9.214;2023-11-21T07:36:52;2.10;;;1.80;;
1026;SDS011;502;48.746;9.214;2023-11-21T07:39:19;3.90;;;2.20;;
1026;SDS011;502;48.746;9.214;2023-11-21T07:41:46;3.47;;;2.00;;
1026;SDS011;502;48.746;9.214;2023-11-21T07:44:14;2.50;;;2.30;;
1026;SDS011;502;48.746;9.214;2023-11-21T07:46:42;3.30;;;2.33;;
1026;SDS011;502;48.746;9.214;2023-11-21T07:49:10;2.40;;;2.10;;
1026;SDS011;502;48.746;9.214;2023-11-21T07:51:37;3.07;;;2.30;;
1026;SDS011;502;48.746;9.214;2023-11-21T07:54:03;2.90;;;1.90;;
1026;SDS011;502;48.746;9.214;2023-11-21T07:56:30;3.17;;;2.50;;
1026;SDS011;502;48.746;9.214;2023-11-21T07:58:57;4.20;;;1.70;;
1026;SDS011;502;48.746;9.214;2023-11-21T08:01:23;5.40;;;2.27;;
1026;SDS011;502;48.746;9.214;2023-11-21T08:03:50;2.33;;;1.87;;
1026;SDS011;502;48.746;9.214;2023-11-21T08:06:19;2.80;;;2.23;;
1026;SDS011;502;48.746;9.214;2023-11-21T08:08:45;2.07;;;1.87;;
1026;SDS011;502;48.746;9.214;2023-11-21T08:11:12;4.70;;;2.60;;
1026;SDS011;502;48.746;9.214;2023-11-21T08:13:39;2.97;;;1.70;;
1026;SDS011;502;48.746;9.214;2023-11-21T08:19:01;4.87;;;2.50;;
1026;SDS011;502;48.746;9.214;2023-11-21T08:21:29;3.70;;;2.40;;
1026;SDS011;502;48.746;9.214;2023-11-21T08:23:56;3.43;;;2.40;;
1026;SDS011;502;48.746;9.214;2023-11-21T08:26:22;3.70;;;2.60;;
1026;SDS011;502;48.746;9.214;2023-11-21T08:28:49;4.80;;;2.80;;
1026;SDS011;502;48.746;9.214;2023-11-21T08:31:22;3.00;;;2.33;;
1026;SDS011;502;48.746;9.214;2023-11-21T08:33:50;2.47;;;1.93;;
1026;SDS011;502;48.746;9.214;2023-11-21T08:36:16;3.50;;;2.10;;
1026;SDS011;502;48.746;9.214;2023-11-21T08:38:44;2.97;;;2.30;;
1026;SDS011;502;48.746;9.214;2023-11-21T08:41:11;2.73;;;2.37;;
1026;SDS011;502;48.746;9.214;2023-11-21T08:43:38;3.47;;;2.60;;
1026;SDS011;502;48.746;9.214;2023-11-21T08:46:05;2.80;;;2.50;;
1026;SDS011;502;48.746;9.214;2023-11-21T08:48:31;3.03;;;2.30;;
1026;SDS011;502;48.746;9.214;2023-11-21T08:50:58;2.30;;;1.90;;
1026;SDS011;502;48.746;9.214;2023-11-21T08:53:25;3.97;;;2.50;;
1026;SDS011;502;48.746;9.214;2023-11-21T08:55:53;3.57;;;2.50;;
1026;SDS011;502;48.746;9.214;2023-11-21T08:58:19;3.70;;;2.40;;
1026;SDS011;502;48.746;9.214;2023-11-21T09:00:46;3.10;;;2.10;;
1026;SDS011;502;48.746;9.214;2023-11-21T09:03:13;2.80;;;2.03;;
1026;SDS011;502;48.746;9.214;2023-11-21T09:05:39;2.30;;;1.80;;
1026;SDS011;502;48.746;9.214;2023-11-21T09:08:06;3.10;;;2.07;;
1026;SDS011;502;48.746;9.214;2023-11-21T09:10:33;4.43;;;2.20;;
1026;SDS011;502;48.746;9.214;2023-11-21T09:13:02;3.13;;;2.33;;
1026;SDS011;502;48.746;9.214;2023-11-21T09:15:28;1.93;;;1.60;;
1026;SDS011;502;48.746;9.214;2023-11-21T09:17:55;3.63;;;2.20;;
1026;SDS011;502;48.746;9.214;2023-11-21T09:20:21;2.73;;;2.20;;
1026;SDS011;502;48.746;9.214;2023-11-21T09:22:48;3.00;;;2.30;;
1026;SDS011;502;48.746;9.214;2023-11-21T09:25:15;3.00;;;2.37;;
1026;SDS011;502;48.746;9.214;2023-11-21T09:27:42;2.90;;;1.90;;
1026;SDS011;502;48.746;9.214;2023-11-21T09:30:10;3.87;;;2.50;;
1026;SDS011;502;48.746;9.214;2023-11-21T09:32:39;2.87;;;2.10;;
1026;SDS011;502;48.746;9.214;2023-11-21T09:35:06;5.53;;;2.57;;
1026;SDS011;502;48.746;9.214;2023-11-21T09:37:33;5.23;;;2.13;;
1026;SDS011;502;48.746;9.214;2023-11-21T09:40:01;2.93;;;1.87;;
1026;SDS011;502;48.746;9.214;2023-11-21T09:42:29;2.77;;;1.80;;
1026;SDS011;502;48.746;9.214;2023-11-21T09:45:02;2.10;;;1.90;;
1026;SDS011;502;48.746;9.214;2023-11-21T09:47:31;2.67;;;2.00;;
1026;SDS011;502;48.746;9.214;2023-11-21T09:49:58;2.63;;;1.80;;
1026;SDS011;502;48.746;9.214;2023-11-21T09:52:28;2.90;;;1.80;;
1026;SDS011;502;48.746;9.214;2023-11-21T09:54:55;3.43;;;1.70;;
1026;SDS011;502;48.746;9.214;2023-11-21T09:57:23;2.57;;;1.83;;
1026;SDS011;502;48.746;9.214;2023-11-21T09:59:51;1.60;;;1.17;;
1026;SDS011;502;48.746;9.214;2023-11-21T10:02:20;1.87;;;1.50;;
1026;SDS011;502;48.746;9.214;2023-11-21T10:04:52;3.03;;;2.27;;
1026;SDS011;502;48.746;9.214;2023-11-21T10:07:20;3.37;;;1.93;;
1026;SDS011;502;48.746;9.214;2023-11-21T10:09:47;2.80;;;2.10;;
1026;SDS011;502;48.746;9.214;2023-11-21T10:12:14;3.57;;;1.80;;
1026;SDS011;502;48.746;9.214;2023-11-21T10:14:41;1.93;;;1.70;;
1026;SDS011;502;48.746;9.214;2023-11-21T10:17:09;1.90;;;1.40;;
1026;SDS011;502;48.746;9.214;2023-11-21T10:19:37;2.13;;;1.37;;
1026;SDS011;502;48.746;9.214;2023-11-21T10:22:06;1.50;;;1.20;;
1026;SDS011;502;48.746;9.214;2023-11-21T10:24:34;1.60;;;0.90;;
1026;SDS011;502;48.746;9.214;2023-11-21T10:27:00;1.77;;;1.10;;
1026;SDS011;502;48.746;9.214;2023-11-21T10:29:28;1.50;;;1.00;;
1026;SDS011;502;48.746;9.214;2023-11-21T10:31:55;2.83;;;1.60;;
1026;SDS011;502;48.746;9.214;2023-11-21T10:34:24;2.73;;;1.60;;
1026;SDS011;502;48.746;9.214;2023-11-21T10:36:53;1.60;;;1.23;;
1026;SDS011;502;48.746;9.214;2023-11-21T10:39:24;2.00;;;1.50;;
1026;SDS011;502;48.746;9.214;2023-11-21T10:41:55;2.40;;;1.90;;
1026;SDS011;502;48.746;9.214;2023-11-21T10:44:22;2.27;;;1.60;;
1026;SDS011;502;48.746;9.214;2023-11-21T10:46:49;1.80;;;1.10;;
1026;SDS011;502;48.746;9.214;2023-11-21T10:49:17;1.70;;;1.13;;
1026;SDS011;502;48.746;9.214;2023-11-21T10:51:44;1.93;;;1.10;;
1026;SDS011;502;48.746;9.214;2023-11-21T10:54:11;3.23;;;1.30;;
1026;SDS011;502;48.746;9.214;2023-11-21T10:56:39;1.70;;;1.10;;
1026;SDS011;502;48.746;9.214;2023-11-21T10:59:09;1.80;;;0.97;;
1026;SDS011;502;48.746;9.214;2023-11-21T11:01:38;1.10;;;0.77;;
1026;SDS011;502;48.746;9.214;2023-11-21T11:04:05;2.33;;;1.00;;
1026;SDS011;502;48.746;9.214;2023-11-21T11:06:34;0.90;;;0.60;;
1026;SDS011;502;48.746;9.214;2023-11-21T11:09:04;2.50;;;0.90;;
1026;SDS011;502;48.746;9.214;2023-11-21T11:11:33;1.23;;;0.97;;
1026;SDS011;502;48.746;9.214;2023-11-21T11:14:05;1.30;;;1.00;;
1026;SDS011;502;48.746;9.214;2023-11-21T11:16:34;1.90;;;0.70;;
1026;SDS011;502;48.746;9.214;2023-11-21T11:19:01;1.20;;;0.60;;
1026;SDS011;502;48.746;9.214;2023-11-21T11:21:43;1.20;;;0.63;;
1026;SDS011;502;48.746;9.214;2023-11-21T11:24:17;3.00;;;1.00;;
1026;SDS011;502;48.746;9.214;2023-11-21T11:26:55;2.07;;;1.00;;
1026;SDS011;502;48.746;9.214;2023-11-21T11:29:26;1.50;;;1.20;;
1026;SDS011;502;48.746;9.214;2023-11-21T11:32:00;1.40;;;1.10;;
1026;SDS011;502;48.746;9.214;2023-11-21T11:34:35;2.47;;;1.60;;
1026;SDS011;502;48.746;9.214;2023-11-21T11:37:05;1.73;;;1.00;;
1026;SDS011;502;48.746;9.214;2023-11-21T11:39:35;1.77;;;1.33;;
1026;SDS011;502;48.746;9.214;2023-11-21T11:42:03;1.93;;;1.30;;
1026;SDS011;502;48.746;9.214;2023-11-21T11:44:47;1.50;;;1.30;;
1026;SDS011;502;48.746;9.214;2023-11-21T11:47:19;1.77;;;1.23;;
1026;SDS011;502;48.746;9.214;2023-11-21T11:49:55;2.20;;;1.30;;
1026;SDS011;502;48.746;9.214;2023-11-21T11:52:32;1.40;;;1.20;;
1026;SDS011;502;48.746;9.214;2023-11-21T11:55:00;1.80;;;1.53;;
1026;SDS011;502;48.746;9.214;2023-11-21T11:57:29;2.30;;;1.77;;
1026;SDS011;502;48.746;9.214;2023-11-21T12:00:08;2.93;;;1.73;;
1026;SDS011;502;48.746;9.214;2023-11-21T12:02:36;2.27;;;1.77;;
1026;SDS011;502;48.746;9.214;2023-11-21T12:05:08;2.20;;;1.63;;
1026;SDS011;502;48.746;9.214;2023-11-21T12:07:43;2.20;;;1.87;;
1026;SDS011;502;48.746;9.214;2023-11-21T12:10:11;2.83;;;1.83;;
1026;SDS011;502;48.746;9.214;2023-11-21T12:12:42;2.50;;;2.00;;
1026;SDS011;502;48.746;9.214;2023-11-21T12:15:11;2.40;;;1.93;;
1026;SDS011;502;48.746;9.214;2023-11-21T12:17:37;2.40;;;1.40;;
1026;SDS011;502;48.746;9.214;2023-11-21T12:20:05;2.77;;;1.80;;
1026;SDS011;502;48.746;9.214;2023-11-21T12:22:39;4.23;;;1.87;;
1026;SDS011;502;48.746;9.214;2023-11-21T12:25:08;2.10;;;1.90;;
1026;SDS011;502;48.746;9.214;2023-11-21T12:27:34;2.67;;;2.30;;
1026;SDS011;502;48.746;9.214;2023-11-21T12:30:01;3.00;;;2.63;;
1026;SDS011;502;48.746;9.214;2023-11-21T12:32:29;2.70;;;2.10;;
1026;SDS011;502;48.746;9.214;2023-11-21T12:34:56;3.50;;;2.90;;
1026;SDS011;502;48.746;9.214;2023-11-21T12:37:22;3.10;;;2.73;;
1026;SDS011;502;48.746;9.214;2023-11-21T12:39:49;5.80;;;2.70;;
1026;SDS011;502;48.746;9.214;2023-11-21T12:42:15;3.53;;;2.63;;
1026;SDS011;502;48.746;9.214;2023-11-21T12:44:42;3.70;;;2.90;;
1026;SDS011;502;48.746;9.214;2023-11-21T12:47:16;5.43;;;3.60;;
1026;SDS011;502;48.746;9.214;2023-11-21T12:49:44;4.10;;;3.03;;
1026;SDS011;502;48.746;9.214;2023-11-21T12:52:11;4.20;;;2.90;;
1026;SDS011;502;48.746;9.214;2023-11-21T12:54:37;4.63;;;3.87;;
1026;SDS011;502;48.746;9.214;2023-11-21T12:57:04;4.30;;;3.70;;
1026;SDS011;502;48.746;9.214;2023-11-21T12:59:33;9.53;;;5.10;;
1026;SDS011;502;48.746;9.214;2023-11-21T13:01:59;9.00;;;3.40;;
1026;SDS011;502;48.746;9.214;2023-11-21T13:04:31;3.87;;;2.60;;
1026;SDS011;502;48.746;9.214;2023-11-21T13:07:04;3.03;;;2.00;;
1026;SDS011;502;48.746;9.214;2023-11-21T13:09:35;3.07;;;2.40;;
1026;SDS011;502;48.746;9.214;2023-11-21T13:12:02;2.50;;;1.87;;
1026;SDS011;502;48.746;9.214;2023-11-21T13:14:29;2.40;;;1.97;;
1026;SDS011;502;48.746;9.214;2023-11-21T13:16:57;2.93;;;2.63;;
1026;SDS011;502;48.746;9.214;2023-11-21T13:19:23;2.70;;;2.17;;
1026;SDS011;502;48.746;9.214;2023-11-21T13:21:52;3.37;;;2.77;;
1026;SDS011;502;48.746;9.214;2023-11-21T13:24:21;2.60;;;2.33;;
1026;SDS011;502;48.746;9.214;2023-11-21T13:26:47;3.10;;;2.17;;
1026;SDS011;502;48.746;9.214;2023-11-21T13:29:15;2.47;;;1.90;;
1026;SDS011;502;48.746;9.214;2023-11-21T13:31:41;6.43;;;2.80;;
1026;SDS011;502;48.746;9.214;2023-11-21T13:34:08;3.20;;;2.60;;
1026;SDS011;502;48.746;9.214;2023-11-21T13:36:34;3.87;;;3.00;;
1026;SDS011;502;48.746;9.214;2023-11-21T13:39:01;2.70;;;1.67;;
1026;SDS011;502;48.746;9.214;2023-11-21T13:41:33;3.40;;;1.90;;
1026;SDS011;502;48.746;9.214;2023-11-21T13:44:03;2.23;;;2.00;;
1026;SDS011;502;48.746;9.214;2023-11-21T13:46:40;2.43;;;1.83;;
1026;SDS011;502;48.746;9.214;2023-11-21T13:49:07;1.60;;;1.00;;
1026;SDS011;502;48.746;9.214;2023-11-21T13:51:35;1.80;;;1.30;;
1026;SDS011;502;48.746;9.214;2023-11-21T13:54:05;2.10;;;1.67;;
1026;SDS011;502;48.746;9.214;2023-11-21T13:56:35;2.50;;;1.43;;
1026;SDS011;502;48.746;9.214;2023-11-21T13:59:02;2.30;;;1.47;;
1026;SDS011;502;48.746;9.214;2023-11-21T14:01:38;1.90;;;1.70;;
1026;SDS011;502;48.746;9.214;2023-11-21T14:04:19;2.57;;;1.80;;
1026;SDS011;502;48.746;9.214;2023-11-21T14:07:00;3.53;;;2.20;;
1026;SDS011;502;48.746;9.214;2023-11-21T14:09:42;3.20;;;2.20;;
1026;SDS011;502;48.746;9.214;2023-11-21T14:12:11;3.00;;;2.70;;
1026;SDS011;502;48.746;9.214;2023-11-21T14:14:38;3.00;;;2.43;;
1026;SDS011;502;48.746;9.214;2023-11-21T14:17:05;3.90;;;3.40;;
1026;SDS011;502;48.746;9.214;2023-11-21T14:19:32;3.97;;;3.27;;
1026;SDS011;502;48.746;9.214;2023-11-21T14:21:59;3.77;;;2.97;;
1026;SDS011;502;48.746;9.214;2023-11-21T14:24:26;4.40;;;4.00;;
1026;SDS011;502;48.746;9.214;2023-11-21T14:26:54;4.40;;;4.00;;
1026;SDS011;502;48.746;9.214;2023-11-21T14:29:22;4.97;;;3.90;;
1026;SDS011;502;48.746;9.214;2023-11-21T14:31:48;3.93;;;3.50;;
1026;SDS011;502;48.746;9.214;2023-11-21T14:34:16;4.33;;;3.67;;
1026;SDS011;502;48.746;9.214;2023-11-21T14:36:43;3.70;;;3.20;;
1026;SDS011;502;48.746;9.214;2023-11-21T14:39:10;5.30;;;4.20;;
1026;SDS011;502;48.746;9.214;2023-11-21T14:41:48;4.07;;;3.40;;
1026;SDS011;502;48.746;9.214;2023-11-21T14:44:14;4.90;;;3.33;;
1026;SDS011;502;48.746;9.214;2023-11-21T14:46:43;4.50;;;3.60;;
1026;SDS011;502;48.746;9.214;2023-11-21T14:49:11;4.20;;;3.47;;
1026;SDS011;502;48.746;9.214;2023-11-21T14:51:44;3.60;;;2.90;;
1026;SDS011;502;48.746;9.214;2023-11-21T14:54:25;2.20;;;2.00;;
1026;SDS011;502;48.746;9.214;2023-11-21T14:57:05;3.20;;;2.90;;
1026;SDS011;502;48.746;9.214;2023-11-21T14:59:36;3.53;;;2.63;;
1026;SDS011;502;48.746;9.214;2023-11-21T15:02:03;4.37;;;3.67;;
1026;SDS011;502;48.746;9.214;2023-11-21T15:04:46;3.50;;;2.50;;
1026;SDS011;502;48.746;9.214;2023-11-21T15:07:13;3.57;;;2.80;;
1026;SDS011;502;48.746;9.214;2023-11-21T15:09:39;3.00;;;2.70;;
1026;SDS011;502;48.746;9.214;2023-11-21T15:12:06;2.90;;;2.60;;
1026;SDS011;502;48.746;9.214;2023-11-21T15:14:41;4.10;;;3.07;;
1026;SDS011;502;48.746;9.214;2023-11-21T15:17:09;3.40;;;2.70;;
1026;SDS011;502;48.746;9.214;2023-11-21T15:19:37;4.40;;;2.87;;
1026;SDS011;502;48.746;9.214;2023-11-21T15:22:04;5.13;;;2.77;;
1026;SDS011;502;48.746;9.214;2023-11-21T15:24:56;3.80;;;2.80;;
1026;SDS011;502;48.746;9.214;2023-11-21T15:27:23;3.70;;;3.20;;
1026;SDS011;502;48.746;9.214;2023-11-21T15:29:49;3.83;;;3.40;;
1026;SDS011;502;48.746;9.214;2023-11-21T15:32:17;3.60;;;3.20;;
1026;SDS011;502;48.746;9.214;2023-11-21T15:34:43;4.37;;;3.20;;
1026;SDS011;502;48.746;9.214;2023-11-21T15:37:12;3.90;;;3.50;;
1026;SDS011;502;48.746;9.214;2023-11-21T15:39:38;3.17;;;2.60;;
1026;SDS011;502;48.746;9.214;2023-11-21T15:42:05;3.60;;;3.20;;